Shakhterskiy, Russia
Current Conditions -  °F | °C
As of 9:00 AM on Tuesday 21 Oct 2014 (Local Time) from UHMA Reporting Station
Broken Clouds Broken Clouds  
Wind Chill: -3°   Ceiling: 8000
Heat Index: 14°   Visibility: 6mi
Dew Point: 10°   Wind: 18mph
Humidity: 86%   Direction: 350°N
Pressure: 29.97"   Gusts: NA
Location:  64.78°N, 177.6°E
Report Text: UHMA 202100Z 35008MPS 9999 BKN080 M10/M12 Q1015 NOSIG RMKQFE758/1010 880///60
Loading
Personal Weather Stations






























Interactive Weather Map
Tropical Storm Tracking
New forecast layout! Learn more

10-Day Weather Forecast

Advertisements
Track Severe Weather on mobile